sensor_id;sensor_type;location;lat;lon;timestamp;P1;durP1;ratioP1;P2;durP2;ratioP2
39426;SDS011;25938;48.470;1.486;2023-02-13T00:00:50;16.50;;;10.98;;
39426;SDS011;25938;48.470;1.486;2023-02-13T00:03:16;14.88;;;10.63;;
39426;SDS011;25938;48.470;1.486;2023-02-13T00:05:42;13.93;;;11.45;;
39426;SDS011;25938;48.470;1.486;2023-02-13T00:08:08;17.05;;;12.68;;
39426;SDS011;25938;48.470;1.486;2023-02-13T00:10:33;19.67;;;13.40;;
39426;SDS011;25938;48.470;1.486;2023-02-13T00:12:59;17.13;;;12.80;;
39426;SDS011;25938;48.470;1.486;2023-02-13T00:15:25;16.23;;;12.02;;
39426;SDS011;25938;48.470;1.486;2023-02-13T00:17:50;18.15;;;12.68;;
39426;SDS011;25938;48.470;1.486;2023-02-13T00:20:16;17.38;;;12.35;;
39426;SDS011;25938;48.470;1.486;2023-02-13T00:22:42;18.63;;;13.05;;
39426;SDS011;25938;48.470;1.486;2023-02-13T00:25:07;16.95;;;12.88;;
39426;SDS011;25938;48.470;1.486;2023-02-13T00:27:33;18.20;;;13.45;;
39426;SDS011;25938;48.470;1.486;2023-02-13T00:29:59;17.95;;;12.85;;
39426;SDS011;25938;48.470;1.486;2023-02-13T00:32:25;18.38;;;13.02;;
39426;SDS011;25938;48.470;1.486;2023-02-13T00:34:50;19.63;;;14.35;;
39426;SDS011;25938;48.470;1.486;2023-02-13T00:37:16;16.73;;;12.73;;
39426;SDS011;25938;48.470;1.486;2023-02-13T00:39:41;17.35;;;12.95;;
39426;SDS011;25938;48.470;1.486;2023-02-13T00:42:07;16.58;;;11.93;;
39426;SDS011;25938;48.470;1.486;2023-02-13T00:44:33;17.63;;;12.73;;
39426;SDS011;25938;48.470;1.486;2023-02-13T00:46:58;15.55;;;13.02;;
39426;SDS011;25938;48.470;1.486;2023-02-13T00:49:24;17.23;;;13.00;;
39426;SDS011;25938;48.470;1.486;2023-02-13T00:51:49;18.05;;;13.48;;
39426;SDS011;25938;48.470;1.486;2023-02-13T00:54:15;17.02;;;12.32;;
39426;SDS011;25938;48.470;1.486;2023-02-13T00:56:41;17.90;;;12.40;;
39426;SDS011;25938;48.470;1.486;2023-02-13T00:59:06;17.60;;;13.77;;
39426;SDS011;25938;48.470;1.486;2023-02-13T01:01:32;18.98;;;12.20;;
39426;SDS011;25938;48.470;1.486;2023-02-13T01:03:58;16.88;;;12.18;;
39426;SDS011;25938;48.470;1.486;2023-02-13T01:06:23;18.20;;;12.40;;
39426;SDS011;25938;48.470;1.486;2023-02-13T01:08:49;16.45;;;12.80;;
39426;SDS011;25938;48.470;1.486;2023-02-13T01:11:15;14.88;;;11.98;;
39426;SDS011;25938;48.470;1.486;2023-02-13T01:13:40;15.50;;;12.18;;
39426;SDS011;25938;48.470;1.486;2023-02-13T01:16:06;18.23;;;12.15;;
39426;SDS011;25938;48.470;1.486;2023-02-13T01:18:32;16.85;;;12.77;;
39426;SDS011;25938;48.470;1.486;2023-02-13T01:20:58;18.10;;;12.60;;
39426;SDS011;25938;48.470;1.486;2023-02-13T01:23:28;17.23;;;12.20;;
39426;SDS011;25938;48.470;1.486;2023-02-13T01:25:58;16.73;;;11.63;;
39426;SDS011;25938;48.470;1.486;2023-02-13T01:28:24;12.65;;;10.30;;
39426;SDS011;25938;48.470;1.486;2023-02-13T01:30:54;11.25;;;9.77;;
39426;SDS011;25938;48.470;1.486;2023-02-13T01:33:21;12.90;;;10.60;;
39426;SDS011;25938;48.470;1.486;2023-02-13T01:35:48;13.77;;;10.38;;
39426;SDS011;25938;48.470;1.486;2023-02-13T01:38:14;15.93;;;11.07;;
39426;SDS011;25938;48.470;1.486;2023-02-13T01:40:51;13.88;;;12.05;;
39426;SDS011;25938;48.470;1.486;2023-02-13T01:43:17;13.20;;;10.60;;
39426;SDS011;25938;48.470;1.486;2023-02-13T01:45:45;13.50;;;10.57;;
39426;SDS011;25938;48.470;1.486;2023-02-13T01:50:48;15.38;;;10.15;;
39426;SDS011;25938;48.470;1.486;2023-02-13T01:53:26;13.50;;;10.32;;
39426;SDS011;25938;48.470;1.486;2023-02-13T01:55:54;14.23;;;10.80;;
39426;SDS011;25938;48.470;1.486;2023-02-13T01:58:25;13.63;;;10.63;;
39426;SDS011;25938;48.470;1.486;2023-02-13T02:00:55;13.25;;;10.68;;
39426;SDS011;25938;48.470;1.486;2023-02-13T02:03:35;15.10;;;10.60;;
39426;SDS011;25938;48.470;1.486;2023-02-13T02:06:06;14.02;;;10.55;;
39426;SDS011;25938;48.470;1.486;2023-02-13T02:08:35;13.60;;;9.40;;
39426;SDS011;25938;48.470;1.486;2023-02-13T02:11:04;15.13;;;10.35;;
39426;SDS011;25938;48.470;1.486;2023-02-13T02:13:54;14.75;;;10.57;;
39426;SDS011;25938;48.470;1.486;2023-02-13T02:16:22;12.45;;;9.93;;
39426;SDS011;25938;48.470;1.486;2023-02-13T02:18:49;14.77;;;10.65;;
39426;SDS011;25938;48.470;1.486;2023-02-13T02:21:23;11.07;;;9.18;;
39426;SDS011;25938;48.470;1.486;2023-02-13T02:38:46;12.50;;;9.63;;
39426;SDS011;25938;48.470;1.486;2023-02-13T02:49:49;11.60;;;9.00;;
39426;SDS011;25938;48.470;1.486;2023-02-13T02:55:45;12.95;;;9.25;;
39426;SDS011;25938;48.470;1.486;2023-02-13T02:58:20;12.05;;;8.65;;
39426;SDS011;25938;48.470;1.486;2023-02-13T03:01:19;12.18;;;9.43;;
39426;SDS011;25938;48.470;1.486;2023-02-13T03:04:08;12.80;;;9.30;;
39426;SDS011;25938;48.470;1.486;2023-02-13T03:09:30;15.05;;;9.70;;
39426;SDS011;25938;48.470;1.486;2023-02-13T03:12:19;12.43;;;9.02;;
39426;SDS011;25938;48.470;1.486;2023-02-13T03:15:06;12.38;;;9.05;;
39426;SDS011;25938;48.470;1.486;2023-02-13T03:17:32;13.95;;;9.20;;
39426;SDS011;25938;48.470;1.486;2023-02-13T03:23:23;11.35;;;8.55;;
39426;SDS011;25938;48.470;1.486;2023-02-13T03:32:16;11.38;;;9.55;;
39426;SDS011;25938;48.470;1.486;2023-02-13T03:35:03;11.98;;;8.65;;
39426;SDS011;25938;48.470;1.486;2023-02-13T03:38:17;12.57;;;9.32;;
39426;SDS011;25938;48.470;1.486;2023-02-13T03:46:29;10.80;;;8.75;;
39426;SDS011;25938;48.470;1.486;2023-02-13T03:48:58;11.52;;;8.68;;
39426;SDS011;25938;48.470;1.486;2023-02-13T03:54:22;9.80;;;8.45;;
39426;SDS011;25938;48.470;1.486;2023-02-13T03:57:07;12.07;;;8.57;;
39426;SDS011;25938;48.470;1.486;2023-02-13T03:59:53;11.55;;;8.23;;
39426;SDS011;25938;48.470;1.486;2023-02-13T04:02:23;12.50;;;8.95;;
39426;SDS011;25938;48.470;1.486;2023-02-13T04:07:41;10.10;;;8.68;;
39426;SDS011;25938;48.470;1.486;2023-02-13T04:10:14;9.75;;;8.18;;
39426;SDS011;25938;48.470;1.486;2023-02-13T04:17:45;10.43;;;8.45;;
39426;SDS011;25938;48.470;1.486;2023-02-13T04:20:17;9.88;;;8.25;;
39426;SDS011;25938;48.470;1.486;2023-02-13T04:22:44;11.45;;;8.63;;
39426;SDS011;25938;48.470;1.486;2023-02-13T04:25:12;9.93;;;8.05;;
39426;SDS011;25938;48.470;1.486;2023-02-13T04:27:40;10.07;;;8.40;;
39426;SDS011;25938;48.470;1.486;2023-02-13T04:30:05;12.90;;;8.75;;
39426;SDS011;25938;48.470;1.486;2023-02-13T04:32:33;11.13;;;8.20;;
39426;SDS011;25938;48.470;1.486;2023-02-13T04:34:58;10.90;;;7.90;;
39426;SDS011;25938;48.470;1.486;2023-02-13T04:37:24;13.68;;;10.40;;
39426;SDS011;25938;48.470;1.486;2023-02-13T04:39:49;9.77;;;8.30;;
39426;SDS011;25938;48.470;1.486;2023-02-13T04:42:15;10.23;;;7.85;;
39426;SDS011;25938;48.470;1.486;2023-02-13T04:44:40;11.98;;;9.85;;
39426;SDS011;25938;48.470;1.486;2023-02-13T04:47:06;12.05;;;8.45;;
39426;SDS011;25938;48.470;1.486;2023-02-13T04:49:32;10.05;;;8.95;;
39426;SDS011;25938;48.470;1.486;2023-02-13T04:51:57;12.90;;;9.50;;
39426;SDS011;25938;48.470;1.486;2023-02-13T04:54:23;13.70;;;9.07;;
39426;SDS011;25938;48.470;1.486;2023-02-13T04:56:48;14.25;;;9.13;;
39426;SDS011;25938;48.470;1.486;2023-02-13T04:59:14;12.05;;;9.63;;
39426;SDS011;25938;48.470;1.486;2023-02-13T05:01:40;12.93;;;9.88;;
39426;SDS011;25938;48.470;1.486;2023-02-13T05:04:05;13.02;;;8.77;;
39426;SDS011;25938;48.470;1.486;2023-02-13T05:06:31;13.80;;;9.90;;
39426;SDS011;25938;48.470;1.486;2023-02-13T05:08:56;16.33;;;9.75;;
39426;SDS011;25938;48.470;1.486;2023-02-13T05:11:22;15.50;;;9.98;;
39426;SDS011;25938;48.470;1.486;2023-02-13T05:13:48;16.98;;;11.30;;
39426;SDS011;25938;48.470;1.486;2023-02-13T05:16:13;14.27;;;10.52;;
39426;SDS011;25938;48.470;1.486;2023-02-13T05:18:39;15.35;;;9.65;;
39426;SDS011;25938;48.470;1.486;2023-02-13T05:21:04;18.45;;;11.75;;
39426;SDS011;25938;48.470;1.486;2023-02-13T05:23:48;13.38;;;9.93;;
39426;SDS011;25938;48.470;1.486;2023-02-13T05:26:14;14.05;;;9.45;;
39426;SDS011;25938;48.470;1.486;2023-02-13T05:28:39;14.07;;;10.55;;
39426;SDS011;25938;48.470;1.486;2023-02-13T05:31:24;13.35;;;10.18;;
39426;SDS011;25938;48.470;1.486;2023-02-13T05:33:49;17.35;;;11.45;;
39426;SDS011;25938;48.470;1.486;2023-02-13T05:36:15;13.10;;;9.98;;
39426;SDS011;25938;48.470;1.486;2023-02-13T05:38:40;13.93;;;9.52;;
39426;SDS011;25938;48.470;1.486;2023-02-13T05:41:06;15.20;;;10.73;;
39426;SDS011;25938;48.470;1.486;2023-02-13T05:43:32;14.88;;;10.30;;
39426;SDS011;25938;48.470;1.486;2023-02-13T05:46:01;15.95;;;11.05;;
39426;SDS011;25938;48.470;1.486;2023-02-13T05:48:28;17.25;;;10.88;;
39426;SDS011;25938;48.470;1.486;2023-02-13T05:50:54;16.08;;;10.38;;
39426;SDS011;25938;48.470;1.486;2023-02-13T05:53:20;15.65;;;9.48;;
39426;SDS011;25938;48.470;1.486;2023-02-13T05:55:45;12.85;;;9.68;;
39426;SDS011;25938;48.470;1.486;2023-02-13T05:58:11;15.52;;;10.48;;
39426;SDS011;25938;48.470;1.486;2023-02-13T06:00:36;11.52;;;8.98;;
39426;SDS011;25938;48.470;1.486;2023-02-13T06:03:02;13.93;;;9.82;;
39426;SDS011;25938;48.470;1.486;2023-02-13T06:05:28;13.10;;;8.90;;
39426;SDS011;25938;48.470;1.486;2023-02-13T06:07:53;13.40;;;9.05;;
39426;SDS011;25938;48.470;1.486;2023-02-13T06:10:19;13.73;;;9.60;;
39426;SDS011;25938;48.470;1.486;2023-02-13T06:12:44;13.55;;;10.02;;
39426;SDS011;25938;48.470;1.486;2023-02-13T06:15:10;14.95;;;11.18;;
39426;SDS011;25938;48.470;1.486;2023-02-13T06:17:36;14.77;;;10.10;;
39426;SDS011;25938;48.470;1.486;2023-02-13T06:20:01;14.00;;;9.13;;
39426;SDS011;25938;48.470;1.486;2023-02-13T06:22:27;18.33;;;11.02;;
39426;SDS011;25938;48.470;1.486;2023-02-13T06:24:53;15.55;;;11.75;;
39426;SDS011;25938;48.470;1.486;2023-02-13T06:27:18;13.88;;;9.55;;
39426;SDS011;25938;48.470;1.486;2023-02-13T06:29:44;11.77;;;9.55;;
39426;SDS011;25938;48.470;1.486;2023-02-13T06:32:09;14.38;;;9.38;;
39426;SDS011;25938;48.470;1.486;2023-02-13T06:34:35;13.60;;;9.70;;
39426;SDS011;25938;48.470;1.486;2023-02-13T06:37:00;16.83;;;10.82;;
39426;SDS011;25938;48.470;1.486;2023-02-13T06:39:26;12.85;;;9.18;;
39426;SDS011;25938;48.470;1.486;2023-02-13T06:41:52;15.68;;;10.05;;
39426;SDS011;25938;48.470;1.486;2023-02-13T06:44:17;12.77;;;9.07;;
39426;SDS011;25938;48.470;1.486;2023-02-13T06:46:43;14.18;;;9.65;;
39426;SDS011;25938;48.470;1.486;2023-02-13T06:49:08;12.35;;;9.13;;
39426;SDS011;25938;48.470;1.486;2023-02-13T06:51:34;11.85;;;8.70;;
39426;SDS011;25938;48.470;1.486;2023-02-13T06:54:00;11.93;;;9.32;;
39426;SDS011;25938;48.470;1.486;2023-02-13T06:56:26;10.30;;;8.73;;
39426;SDS011;25938;48.470;1.486;2023-02-13T06:58:52;13.45;;;9.07;;
39426;SDS011;25938;48.470;1.486;2023-02-13T07:01:17;13.45;;;8.88;;
39426;SDS011;25938;48.470;1.486;2023-02-13T07:03:43;14.15;;;9.88;;
39426;SDS011;25938;48.470;1.486;2023-02-13T07:06:09;11.85;;;8.73;;
39426;SDS011;25938;48.470;1.486;2023-02-13T07:08:40;10.65;;;9.00;;
39426;SDS011;25938;48.470;1.486;2023-02-13T07:11:06;11.77;;;9.07;;
39426;SDS011;25938;48.470;1.486;2023-02-13T07:13:31;11.98;;;9.20;;
39426;SDS011;25938;48.470;1.486;2023-02-13T07:15:59;11.82;;;8.57;;
39426;SDS011;25938;48.470;1.486;2023-02-13T07:18:25;12.60;;;8.23;;
39426;SDS011;25938;48.470;1.486;2023-02-13T07:20:50;11.90;;;8.82;;
39426;SDS011;25938;48.470;1.486;2023-02-13T07:23:16;13.43;;;8.90;;
39426;SDS011;25938;48.470;1.486;2023-02-13T07:25:42;13.27;;;8.68;;
39426;SDS011;25938;48.470;1.486;2023-02-13T07:28:08;12.30;;;9.25;;
39426;SDS011;25938;48.470;1.486;2023-02-13T07:30:33;10.38;;;7.80;;
39426;SDS011;25938;48.470;1.486;2023-02-13T07:33:00;10.45;;;8.40;;
39426;SDS011;25938;48.470;1.486;2023-02-13T07:35:26;11.50;;;8.77;;
39426;SDS011;25938;48.470;1.486;2023-02-13T07:37:52;11.32;;;8.52;;
39426;SDS011;25938;48.470;1.486;2023-02-13T07:40:19;11.48;;;8.45;;
39426;SDS011;25938;48.470;1.486;2023-02-13T07:42:45;10.32;;;7.88;;
39426;SDS011;25938;48.470;1.486;2023-02-13T07:45:11;10.48;;;8.00;;
39426;SDS011;25938;48.470;1.486;2023-02-13T07:47:36;8.77;;;7.38;;
39426;SDS011;25938;48.470;1.486;2023-02-13T07:50:02;8.75;;;7.35;;
39426;SDS011;25938;48.470;1.486;2023-02-13T07:52:30;9.50;;;7.90;;
39426;SDS011;25938;48.470;1.486;2023-02-13T07:54:56;9.10;;;7.40;;
39426;SDS011;25938;48.470;1.486;2023-02-13T07:57:22;9.55;;;7.50;;
39426;SDS011;25938;48.470;1.486;2023-02-13T07:59:47;10.25;;;7.78;;
39426;SDS011;25938;48.470;1.486;2023-02-13T08:02:13;8.55;;;7.40;;
39426;SDS011;25938;48.470;1.486;2023-02-13T08:04:40;8.10;;;6.55;;
39426;SDS011;25938;48.470;1.486;2023-02-13T08:07:10;9.27;;;7.05;;
39426;SDS011;25938;48.470;1.486;2023-02-13T08:09:36;8.40;;;6.63;;
39426;SDS011;25938;48.470;1.486;2023-02-13T08:12:20;9.35;;;7.45;;
39426;SDS011;25938;48.470;1.486;2023-02-13T08:14:46;8.07;;;6.93;;
39426;SDS011;25938;48.470;1.486;2023-02-13T08:17:12;8.60;;;6.53;;
39426;SDS011;25938;48.470;1.486;2023-02-13T08:19:38;8.20;;;7.03;;
39426;SDS011;25938;48.470;1.486;2023-02-13T08:22:03;7.80;;;6.43;;
39426;SDS011;25938;48.470;1.486;2023-02-13T08:24:29;7.20;;;6.38;;
39426;SDS011;25938;48.470;1.486;2023-02-13T08:26:55;7.38;;;6.22;;
39426;SDS011;25938;48.470;1.486;2023-02-13T08:29:21;8.70;;;6.35;;
39426;SDS011;25938;48.470;1.486;2023-02-13T08:31:46;30.02;;;14.38;;
39426;SDS011;25938;48.470;1.486;2023-02-13T08:34:12;19.02;;;13.13;;
39426;SDS011;25938;48.470;1.486;2023-02-13T08:36:37;15.20;;;11.55;;
39426;SDS011;25938;48.470;1.486;2023-02-13T08:39:03;16.33;;;11.52;;
39426;SDS011;25938;48.470;1.486;2023-02-13T08:41:29;14.43;;;9.50;;
39426;SDS011;25938;48.470;1.486;2023-02-13T08:43:54;13.23;;;9.82;;
39426;SDS011;25938;48.470;1.486;2023-02-13T08:46:20;12.82;;;9.00;;
39426;SDS011;25938;48.470;1.486;2023-02-13T08:48:46;12.68;;;8.98;;
39426;SDS011;25938;48.470;1.486;2023-02-13T08:51:12;9.88;;;7.95;;
39426;SDS011;25938;48.470;1.486;2023-02-13T08:53:38;10.55;;;7.85;;
39426;SDS011;25938;48.470;1.486;2023-02-13T08:56:04;11.40;;;8.23;;
39426;SDS011;25938;48.470;1.486;2023-02-13T08:58:30;9.82;;;7.97;;
39426;SDS011;25938;48.470;1.486;2023-02-13T09:00:56;11.20;;;7.60;;
39426;SDS011;25938;48.470;1.486;2023-02-13T09:03:22;10.10;;;7.07;;
39426;SDS011;25938;48.470;1.486;2023-02-13T09:05:48;9.63;;;7.68;;
39426;SDS011;25938;48.470;1.486;2023-02-13T09:08:14;9.98;;;6.45;;
39426;SDS011;25938;48.470;1.486;2023-02-13T09:10:40;8.27;;;6.13;;
39426;SDS011;25938;48.470;1.486;2023-02-13T09:13:09;7.30;;;6.15;;
39426;SDS011;25938;48.470;1.486;2023-02-13T09:15:38;7.90;;;6.13;;
39426;SDS011;25938;48.470;1.486;2023-02-13T09:18:04;8.32;;;5.32;;
39426;SDS011;25938;48.470;1.486;2023-02-13T09:20:31;8.95;;;7.00;;
39426;SDS011;25938;48.470;1.486;2023-02-13T09:22:56;8.65;;;6.15;;
39426;SDS011;25938;48.470;1.486;2023-02-13T09:25:22;8.45;;;5.53;;
39426;SDS011;25938;48.470;1.486;2023-02-13T09:27:47;7.75;;;5.25;;
39426;SDS011;25938;48.470;1.486;2023-02-13T09:30:13;7.35;;;6.60;;
39426;SDS011;25938;48.470;1.486;2023-02-13T09:35:13;5.03;;;4.53;;
39426;SDS011;25938;48.470;1.486;2023-02-13T09:37:39;5.72;;;5.10;;
39426;SDS011;25938;48.470;1.486;2023-02-13T09:40:05;8.62;;;6.24;;
39426;SDS011;25938;48.470;1.486;2023-02-13T09:42:40;6.22;;;4.72;;
39426;SDS011;25938;48.470;1.486;2023-02-13T09:45:09;5.95;;;5.05;;
39426;SDS011;25938;48.470;1.486;2023-02-13T09:47:38;6.15;;;4.65;;
39426;SDS011;25938;48.470;1.486;2023-02-13T09:52:42;6.88;;;5.40;;
39426;SDS011;25938;48.470;1.486;2023-02-13T09:55:14;5.43;;;4.40;;
39426;SDS011;25938;48.470;1.486;2023-02-13T09:57:42;5.88;;;4.97;;
39426;SDS011;25938;48.470;1.486;2023-02-13T10:00:28;6.40;;;4.72;;
39426;SDS011;25938;48.470;1.486;2023-02-13T10:14:03;7.07;;;5.78;;
39426;SDS011;25938;48.470;1.486;2023-02-13T10:16:42;5.38;;;4.53;;
39426;SDS011;25938;48.470;1.486;2023-02-13T10:21:53;6.50;;;4.68;;
39426;SDS011;25938;48.470;1.486;2023-02-13T10:24:28;7.90;;;5.55;;
39426;SDS011;25938;48.470;1.486;2023-02-13T10:27:22;5.97;;;5.18;;
39426;SDS011;25938;48.470;1.486;2023-02-13T10:35:03;6.05;;;5.45;;
39426;SDS011;25938;48.470;1.486;2023-02-13T10:37:47;5.18;;;4.68;;
39426;SDS011;25938;48.470;1.486;2023-02-13T10:40:16;7.63;;;5.70;;
39426;SDS011;25938;48.470;1.486;2023-02-13T10:42:43;10.07;;;5.70;;
39426;SDS011;25938;48.470;1.486;2023-02-13T10:45:45;7.95;;;5.85;;
39426;SDS011;25938;48.470;1.486;2023-02-13T10:51:16;8.43;;;6.20;;
39426;SDS011;25938;48.470;1.486;2023-02-13T10:56:26;8.18;;;6.32;;
39426;SDS011;25938;48.470;1.486;2023-02-13T10:59:07;9.98;;;6.22;;
39426;SDS011;25938;48.470;1.486;2023-02-13T11:02:08;7.88;;;6.50;;
39426;SDS011;25938;48.470;1.486;2023-02-13T11:04:45;9.00;;;6.72;;
39426;SDS011;25938;48.470;1.486;2023-02-13T11:07:14;9.73;;;7.53;;
39426;SDS011;25938;48.470;1.486;2023-02-13T11:09:48;9.45;;;6.95;;
39426;SDS011;25938;48.470;1.486;2023-02-13T11:12:25;10.07;;;7.22;;
39426;SDS011;25938;48.470;1.486;2023-02-13T11:15:03;11.95;;;7.88;;
39426;SDS011;25938;48.470;1.486;2023-02-13T11:17:31;9.13;;;6.40;;
39426;SDS011;25938;48.470;1.486;2023-02-13T11:20:02;9.35;;;7.05;;
39426;SDS011;25938;48.470;1.486;2023-02-13T11:22:33;10.15;;;7.00;;
39426;SDS011;25938;48.470;1.486;2023-02-13T11:25:02;10.90;;;8.07;;
39426;SDS011;25938;48.470;1.486;2023-02-13T11:27:32;8.50;;;6.80;;
39426;SDS011;25938;48.470;1.486;2023-02-13T11:30:05;8.98;;;6.75;;
39426;SDS011;25938;48.470;1.486;2023-02-13T11:32:58;19.95;;;13.43;;
39426;SDS011;25938;48.470;1.486;2023-02-13T11:35:44;17.58;;;11.07;;
39426;SDS011;25938;48.470;1.486;2023-02-13T11:40:39;12.80;;;10.40;;
39426;SDS011;25938;48.470;1.486;2023-02-13T11:43:13;14.07;;;9.98;;
39426;SDS011;25938;48.470;1.486;2023-02-13T11:46:03;11.50;;;9.40;;
39426;SDS011;25938;48.470;1.486;2023-02-13T11:48:30;13.73;;;9.70;;
39426;SDS011;25938;48.470;1.486;2023-02-13T11:50:56;11.88;;;8.73;;
39426;SDS011;25938;48.470;1.486;2023-02-13T11:53:23;13.32;;;9.48;;
39426;SDS011;25938;48.470;1.486;2023-02-13T11:58:39;10.45;;;7.95;;
39426;SDS011;25938;48.470;1.486;2023-02-13T12:01:22;11.52;;;8.18;;
39426;SDS011;25938;48.470;1.486;2023-02-13T12:04:04;11.52;;;7.65;;
39426;SDS011;25938;48.470;1.486;2023-02-13T12:06:38;10.20;;;8.02;;
39426;SDS011;25938;48.470;1.486;2023-02-13T12:09:04;11.27;;;8.07;;
39426;SDS011;25938;48.470;1.486;2023-02-13T12:11:41;11.00;;;7.35;;
39426;SDS011;25938;48.470;1.486;2023-02-13T12:14:17;9.60;;;7.10;;
39426;SDS011;25938;48.470;1.486;2023-02-13T12:16:49;11.75;;;7.47;;
39426;SDS011;25938;48.470;1.486;2023-02-13T12:19:38;13.35;;;8.07;;
39426;SDS011;25938;48.470;1.486;2023-02-13T12:27:51;13.23;;;7.47;;
39426;SDS011;25938;48.470;1.486;2023-02-13T12:33:20;9.68;;;7.20;;
39426;SDS011;25938;48.470;1.486;2023-02-13T12:36:15;19.77;;;13.35;;
39426;SDS011;25938;48.470;1.486;2023-02-13T12:41:33;20.48;;;12.48;;
39426;SDS011;25938;48.470;1.486;2023-02-13T12:47:15;15.48;;;11.98;;
39426;SDS011;25938;48.470;1.486;2023-02-13T13:14:48;9.57;;;8.52;;
39426;SDS011;25938;48.470;1.486;2023-02-13T13:22:43;8.25;;;7.10;;
39426;SDS011;25938;48.470;1.486;2023-02-13T13:25:28;9.52;;;7.38;;
39426;SDS011;25938;48.470;1.486;2023-02-13T13:28:07;7.20;;;6.40;;
39426;SDS011;25938;48.470;1.486;2023-02-13T13:30:39;10.88;;;8.23;;
39426;SDS011;25938;48.470;1.486;2023-02-13T13:33:12;8.93;;;7.65;;
39426;SDS011;25938;48.470;1.486;2023-02-13T13:36:10;9.15;;;6.57;;
39426;SDS011;25938;48.470;1.486;2023-02-13T13:46:30;9.13;;;6.25;;
39426;SDS011;25938;48.470;1.486;2023-02-13T13:52:42;9.13;;;7.30;;
39426;SDS011;25938;48.470;1.486;2023-02-13T13:55:03;8.15;;;5.82;;
39426;SDS011;25938;48.470;1.486;2023-02-13T14:05:32;8.60;;;6.68;;
39426;SDS011;25938;48.470;1.486;2023-02-13T14:11:05;7.88;;;5.53;;
39426;SDS011;25938;48.470;1.486;2023-02-13T14:13:49;8.25;;;6.28;;
39426;SDS011;25938;48.470;1.486;2023-02-13T14:16:35;7.85;;;6.15;;
39426;SDS011;25938;48.470;1.486;2023-02-13T14:19:24;7.13;;;6.30;;
39426;SDS011;25938;48.470;1.486;2023-02-13T14:24:51;7.53;;;6.03;;
39426;SDS011;25938;48.470;1.486;2023-02-13T14:30:01;7.43;;;6.25;;
39426;SDS011;25938;48.470;1.486;2023-02-13T14:32:32;8.07;;;5.15;;
39426;SDS011;25938;48.470;1.486;2023-02-13T14:35:04;6.50;;;4.88;;
39426;SDS011;25938;48.470;1.486;2023-02-13T14:37:54;8.00;;;4.72;;
39426;SDS011;25938;48.470;1.486;2023-02-13T14:46:08;6.60;;;4.38;;
39426;SDS011;25938;48.470;1.486;2023-02-13T14:48:50;8.35;;;6.00;;
39426;SDS011;25938;48.470;1.486;2023-02-13T14:51:28;7.38;;;5.40;;
39426;SDS011;25938;48.470;1.486;2023-02-13T14:53:57;5.70;;;4.68;;
39426;SDS011;25938;48.470;1.486;2023-02-13T14:56:27;7.80;;;6.05;;
39426;SDS011;25938;48.470;1.486;2023-02-13T14:59:14;6.03;;;5.07;;
39426;SDS011;25938;48.470;1.486;2023-02-13T15:01:48;5.47;;;4.70;;
39426;SDS011;25938;48.470;1.486;2023-02-13T15:04:19;6.07;;;4.88;;
39426;SDS011;25938;48.470;1.486;2023-02-13T15:06:46;7.15;;;5.05;;
39426;SDS011;25938;48.470;1.486;2023-02-13T15:09:21;6.78;;;5.00;;
39426;SDS011;25938;48.470;1.486;2023-02-13T15:11:57;7.30;;;5.43;;
39426;SDS011;25938;48.470;1.486;2023-02-13T15:14:24;6.13;;;4.53;;
39426;SDS011;25938;48.470;1.486;2023-02-13T15:17:01;7.57;;;5.65;;
39426;SDS011;25938;48.470;1.486;2023-02-13T15:19:30;6.90;;;5.35;;
39426;SDS011;25938;48.470;1.486;2023-02-13T15:21:59;5.47;;;4.68;;
39426;SDS011;25938;48.470;1.486;2023-02-13T15:24:26;5.70;;;5.05;;
39426;SDS011;25938;48.470;1.486;2023-02-13T15:27:03;5.75;;;4.55;;
39426;SDS011;25938;48.470;1.486;2023-02-13T15:29:31;6.53;;;5.13;;
39426;SDS011;25938;48.470;1.486;2023-02-13T15:31:57;6.05;;;4.13;;
39426;SDS011;25938;48.470;1.486;2023-02-13T15:34:25;7.57;;;4.20;;
39426;SDS011;25938;48.470;1.486;2023-02-13T15:36:58;6.72;;;4.68;;
39426;SDS011;25938;48.470;1.486;2023-02-13T15:39:25;9.05;;;4.70;;
39426;SDS011;25938;48.470;1.486;2023-02-13T15:41:53;7.80;;;4.85;;
39426;SDS011;25938;48.470;1.486;2023-02-13T15:44:25;6.30;;;4.63;;
39426;SDS011;25938;48.470;1.486;2023-02-13T15:46:56;7.53;;;4.95;;
39426;SDS011;25938;48.470;1.486;2023-02-13T15:49:36;9.13;;;5.40;;
39426;SDS011;25938;48.470;1.486;2023-02-13T15:52:04;7.47;;;4.88;;
39426;SDS011;25938;48.470;1.486;2023-02-13T15:54:32;7.88;;;5.15;;
39426;SDS011;25938;48.470;1.486;2023-02-13T15:57:00;7.45;;;5.88;;
39426;SDS011;25938;48.470;1.486;2023-02-13T15:59:36;8.85;;;5.20;;
39426;SDS011;25938;48.470;1.486;2023-02-13T16:02:04;7.72;;;4.78;;
39426;SDS011;25938;48.470;1.486;2023-02-13T16:04:35;9.77;;;4.93;;
39426;SDS011;25938;48.470;1.486;2023-02-13T16:07:01;7.90;;;4.95;;
39426;SDS011;25938;48.470;1.486;2023-02-13T16:09:33;6.95;;;4.82;;
39426;SDS011;25938;48.470;1.486;2023-02-13T16:12:13;6.87;;;5.80;;
39426;SDS011;25938;48.470;1.486;2023-02-13T16:15:12;6.57;;;4.93;;
39426;SDS011;25938;48.470;1.486;2023-02-13T16:17:41;6.40;;;4.63;;
39426;SDS011;25938;48.470;1.486;2023-02-13T16:25:16;7.18;;;4.93;;
39426;SDS011;25938;48.470;1.486;2023-02-13T16:30:39;7.22;;;5.10;;
39426;SDS011;25938;48.470;1.486;2023-02-13T16:35:39;7.50;;;5.07;;
39426;SDS011;25938;48.470;1.486;2023-02-13T16:46:27;7.80;;;5.70;;
39426;SDS011;25938;48.470;1.486;2023-02-13T16:51:39;9.88;;;6.07;;
39426;SDS011;25938;48.470;1.486;2023-02-13T16:59:27;6.85;;;4.63;;
39426;SDS011;25938;48.470;1.486;2023-02-13T17:10:03;9.55;;;7.20;;
39426;SDS011;25938;48.470;1.486;2023-02-13T17:12:30;9.30;;;5.80;;
39426;SDS011;25938;48.470;1.486;2023-02-13T17:14:59;10.95;;;6.13;;
39426;SDS011;25938;48.470;1.486;2023-02-13T17:17:26;9.20;;;6.63;;
39426;SDS011;25938;48.470;1.486;2023-02-13T17:19:54;10.30;;;7.47;;
39426;SDS011;25938;48.470;1.486;2023-02-13T17:24:49;10.02;;;7.28;;
39426;SDS011;25938;48.470;1.486;2023-02-13T17:27:14;10.07;;;6.70;;
39426;SDS011;25938;48.470;1.486;2023-02-13T17:29:40;12.27;;;8.15;;
39426;SDS011;25938;48.470;1.486;2023-02-13T17:32:07;10.95;;;8.32;;
39426;SDS011;25938;48.470;1.486;2023-02-13T17:34:35;15.02;;;10.68;;
39426;SDS011;25938;48.470;1.486;2023-02-13T17:37:00;12.35;;;7.97;;
39426;SDS011;25938;48.470;1.486;2023-02-13T17:39:26;15.13;;;8.20;;
39426;SDS011;25938;48.470;1.486;2023-02-13T17:41:52;17.15;;;9.15;;
39426;SDS011;25938;48.470;1.486;2023-02-13T17:44:17;14.25;;;8.43;;
39426;SDS011;25938;48.470;1.486;2023-02-13T17:46:43;13.63;;;9.00;;
39426;SDS011;25938;48.470;1.486;2023-02-13T17:49:08;13.23;;;8.98;;
39426;SDS011;25938;48.470;1.486;2023-02-13T17:51:34;15.52;;;10.00;;
39426;SDS011;25938;48.470;1.486;2023-02-13T17:54:02;25.52;;;19.33;;
39426;SDS011;25938;48.470;1.486;2023-02-13T17:56:28;25.50;;;17.33;;
39426;SDS011;25938;48.470;1.486;2023-02-13T17:58:54;23.88;;;15.90;;
39426;SDS011;25938;48.470;1.486;2023-02-13T18:01:19;19.25;;;15.45;;
39426;SDS011;25938;48.470;1.486;2023-02-13T18:03:45;23.10;;;15.02;;
39426;SDS011;25938;48.470;1.486;2023-02-13T18:06:13;21.33;;;15.18;;
39426;SDS011;25938;48.470;1.486;2023-02-13T18:08:39;20.35;;;14.02;;
39426;SDS011;25938;48.470;1.486;2023-02-13T18:11:09;20.83;;;13.15;;
39426;SDS011;25938;48.470;1.486;2023-02-13T18:13:35;19.60;;;13.60;;
39426;SDS011;25938;48.470;1.486;2023-02-13T18:16:06;21.38;;;13.30;;
39426;SDS011;25938;48.470;1.486;2023-02-13T18:18:32;20.27;;;12.80;;
39426;SDS011;25938;48.470;1.486;2023-02-13T18:20:57;17.13;;;12.77;;